Home   Weather   Spain   Barcelona   Past weeks
Flag for Spain

Past Weather in Barcelona, Barcelona, Spain — Yesterday and Last 2 Weeks

Currently: 55 °F. Clear. (Weather station: Barcelona Airport, Spain). See more current weather

Past Weather in Barcelona — Graph

°F

Barcelona Temperature Yesterday

Maximum temperature yesterday: 59 °F (at 1:00 pm)
Minimum temperature yesterday: 48 °F (at 11:00 pm)
Average temperature yesterday: 54 °F

High & Low Weather Summary for the Past Weeks

 TemperatureHumidityPressure
High66 °F (Feb 15, 1:00 pm)100% (Feb 14, 7:30 pm)30.51 "Hg (Feb 14, 7:30 pm)
Low43 °F (Feb 24, 11:30 pm)27% (Feb 23, 4:00 pm)29.45 "Hg (Feb 26, 4:00 pm)
Average54 °F70%30.02 "Hg
* Reported Feb 14 7:00 pm — Feb 29 7:30 pm, Barcelona. Weather by CustomWeather, © 2024

Note: Actual official high and low records may vary slightly from our data, if they occured in-between our weather recording intervals... More about our weather records

Barcelona Weather History for the Previous 24 Hours

Scroll right to see more
 ConditionsComfort  
Time TempWeatherWind HumidityBarometerVisibility
7:30 pm
Thu, Feb 29
55 °FPassing clouds.15 mph77%29.80 "HgN/A
7:00 pm55 °FPassing clouds.18 mph77%29.80 "HgN/A
6:30 pm57 °FSunny.14 mph77%29.80 "Hg10 mi
6:00 pm57 °FSunny.14 mph77%29.80 "Hg10 mi
5:30 pm57 °FSunny.12 mph77%29.80 "Hg10 mi
5:00 pm57 °FSunny.10 mph67%29.83 "Hg10 mi
4:30 pm59 °FSunny.9 mph63%29.83 "Hg10 mi
4:00 pm57 °FPassing clouds.9 mph63%29.83 "HgN/A
3:30 pm57 °FSunny.12 mph59%29.86 "Hg10 mi
3:00 pm57 °FSunny.12 mph55%29.86 "Hg10 mi
2:30 pm59 °FSunny.12 mph45%29.89 "Hg10 mi
2:00 pm57 °FPassing clouds.12 mph55%29.89 "HgN/A
1:30 pm57 °FPassing clouds.12 mph51%29.92 "HgN/A
1:00 pm57 °FPassing clouds.12 mph51%29.95 "HgN/A
12:30 pm57 °FSunny.10 mph44%29.95 "Hg10 mi
12:00 pm57 °FPassing clouds.6 mph44%29.95 "HgN/A
11:30 am57 °FPassing clouds.7 mph44%29.98 "HgN/A
11:00 am55 °FPassing clouds.10 mph44%29.98 "HgN/A
10:30 am54 °FSunny.12 mph51%29.98 "Hg10 mi
10:00 am52 °FSunny.13 mph54%29.98 "Hg10 mi
9:30 am50 °FPassing clouds.12 mph54%29.98 "HgN/A
9:00 am48 °FPassing clouds.14 mph58%29.98 "HgN/A
8:30 am46 °FSunny.12 mph57%29.98 "Hg10 mi
8:00 am46 °FPassing clouds.12 mph57%29.95 "HgN/A
7:30 am46 °FPassing clouds.13 mph57%29.95 "HgN/A
7:00 am46 °FClear.12 mph57%29.95 "Hg10 mi
6:30 am46 °FClear.8 mph57%29.95 "Hg10 mi
5:30 am46 °FPassing clouds.7 mph57%29.95 "HgN/A
5:00 am46 °FClear.9 mph53%29.95 "Hg10 mi
4:30 am46 °FClear.12 mph53%29.95 "Hg10 mi
4:00 am46 °FPassing clouds.6 mph57%29.98 "HgN/A
3:30 am46 °FClear.7 mph57%29.98 "Hg10 mi
3:00 am45 °FPassing clouds.7 mph61%29.98 "HgN/A
2:30 am46 °FClear.10 mph57%29.98 "Hg10 mi
2:00 am45 °FClear.9 mph66%30.01 "Hg10 mi
1:30 am46 °FClear.7 mph62%30.01 "Hg10 mi
1:00 am48 °FClear.8 mph58%30.01 "Hg10 mi
12:30 am46 °FClear.6 mph62%30.01 "Hg10 mi
12:00 am46 °FPassing clouds.3 mph57%30.01 "HgN/A
11:30 pm
Wed, Feb 28
48 °FClear.7 mph58%30.01 "Hg10 mi
11:00 pm48 °FClear.8 mph58%30.01 "Hg10 mi
10:30 pm50 °FClear.2 mph54%30.01 "Hg10 mi
10:00 pm54 °FPassing clouds.2 mph44%30.04 "HgN/A
9:30 pm52 °FPassing clouds.1 mph50%30.01 "HgN/A
9:00 pm50 °FPassing clouds.3 mph58%30.01 "HgN/A
8:30 pm52 °FPassing clouds.3 mph58%30.01 "HgN/A
8:00 pm52 °FPassing clouds.6 mph58%30.01 "HgN/A
Weather by CustomWeather, © 2024

See weather overview